createdAt,value
2023-03-05T00:01:19.510Z,4.92
2023-03-05T00:03:46.678Z,4.92
2023-03-05T00:06:13.290Z,4.95
2023-03-05T00:08:40.237Z,4.95
2023-03-05T00:11:09.802Z,4.91
2023-03-05T00:13:36.893Z,4.92
2023-03-05T00:16:05.606Z,4.92
2023-03-05T00:18:32.142Z,4.92
2023-03-05T00:20:59.014Z,4.93
2023-03-05T00:23:25.851Z,4.89
2023-03-05T00:25:52.501Z,4.86
2023-03-05T00:28:19.537Z,4.88
2023-03-05T00:30:46.306Z,4.81
2023-03-05T00:33:13.539Z,4.84
2023-03-05T00:35:41.943Z,4.85
2023-03-05T00:38:08.916Z,4.86
2023-03-05T00:40:38.154Z,4.86
2023-03-05T00:43:05.492Z,4.81
2023-03-05T00:45:32.462Z,4.82
2023-03-05T00:47:59.003Z,4.83
2023-03-05T00:50:26.242Z,4.85
2023-03-05T00:52:53.131Z,4.86
2023-03-05T00:55:19.797Z,4.83
2023-03-05T00:57:46.455Z,4.82
2023-03-05T01:00:15.528Z,4.88
2023-03-05T01:02:42.316Z,4.86
2023-03-05T01:05:12.769Z,4.88
2023-03-05T01:07:40.218Z,4.85
2023-03-05T01:10:08.364Z,4.89
2023-03-05T01:12:35.347Z,4.88
2023-03-05T01:15:02.386Z,4.85
2023-03-05T01:17:28.996Z,4.81
2023-03-05T01:19:55.558Z,4.78
2023-03-05T01:22:22.420Z,4.86
2023-03-05T01:24:51.756Z,4.85
2023-03-05T01:27:18.245Z,4.77
2023-03-05T01:29:44.809Z,4.79
2023-03-05T01:32:11.484Z,4.72
2023-03-05T01:34:38.008Z,4.70
2023-03-05T01:37:04.817Z,4.70
2023-03-05T01:39:31.338Z,4.74
2023-03-05T01:41:57.987Z,4.77
2023-03-05T01:44:27.392Z,4.82
2023-03-05T01:46:54.112Z,4.81
2023-03-05T01:49:33.866Z,4.86
2023-03-05T01:52:03.396Z,4.95
2023-03-05T01:54:35.238Z,4.94
2023-03-05T01:57:07.716Z,4.89
2023-03-05T01:59:34.702Z,4.96
2023-03-05T02:02:01.649Z,4.95
2023-03-05T02:04:36.328Z,4.90
2023-03-05T02:07:03.285Z,4.85
2023-03-05T02:09:29.912Z,4.85
2023-03-05T02:11:57.318Z,4.83
2023-03-05T02:14:24.678Z,4.87
2023-03-05T02:16:51.607Z,4.85
2023-03-05T02:19:18.275Z,4.85
2023-03-05T02:21:47.270Z,4.86
2023-03-05T02:24:16.334Z,4.90
2023-03-05T02:26:45.049Z,4.86
2023-03-05T02:29:17.685Z,4.91
2023-03-05T02:31:44.332Z,4.85
2023-03-05T02:34:10.928Z,4.86
2023-03-05T02:36:37.450Z,4.84
2023-03-05T02:39:04.672Z,4.84
2023-03-05T02:41:31.144Z,4.82
2023-03-05T02:43:57.642Z,4.85
2023-03-05T02:46:24.192Z,4.85
2023-03-05T02:48:50.696Z,4.81
2023-03-05T02:51:17.543Z,4.80
2023-03-05T02:53:44.226Z,4.80
2023-03-05T02:56:10.985Z,4.75
2023-03-05T02:58:37.478Z,4.74
2023-03-05T03:01:04.375Z,4.77
2023-03-05T03:03:31.030Z,4.73
2023-03-05T03:05:57.582Z,4.82
2023-03-05T03:08:24.162Z,4.73
2023-03-05T03:10:50.729Z,4.70
2023-03-05T03:13:17.359Z,4.76
2023-03-05T03:15:43.966Z,4.74
2023-03-05T03:18:10.521Z,4.74
2023-03-05T03:20:39.240Z,4.74
2023-03-05T03:23:06.738Z,4.74
2023-03-05T03:25:33.572Z,4.77
2023-03-05T03:28:00.143Z,4.86
2023-03-05T03:30:26.675Z,4.91
2023-03-05T03:32:53.813Z,4.88
2023-03-05T03:35:20.438Z,4.88
2023-03-05T03:37:47.667Z,4.96
2023-03-05T03:40:14.268Z,5.03
2023-03-05T03:42:40.821Z,5.11
2023-03-05T03:45:08.082Z,5.04
2023-03-05T03:47:34.698Z,5.08
2023-03-05T03:50:01.383Z,5.09
2023-03-05T03:52:28.041Z,5.10
2023-03-05T03:55:01.345Z,5.16
2023-03-05T03:57:29.490Z,5.09
2023-03-05T03:59:56.040Z,5.06
2023-03-05T04:02:23.094Z,5.04
2023-03-05T04:04:49.756Z,4.98
2023-03-05T04:07:16.277Z,4.94
2023-03-05T04:09:42.882Z,4.88
2023-03-05T04:12:09.732Z,4.83
2023-03-05T04:14:37.037Z,4.89
2023-03-05T04:17:03.644Z,4.95
2023-03-05T04:19:34.126Z,4.96
2023-03-05T04:22:00.746Z,4.93
2023-03-05T04:24:27.291Z,4.96
2023-03-05T04:26:54.079Z,4.86
2023-03-05T04:29:20.600Z,4.85
2023-03-05T04:31:47.136Z,4.88
2023-03-05T04:34:13.671Z,4.85
2023-03-05T04:36:40.350Z,4.80
2023-03-05T04:39:06.870Z,4.76
2023-03-05T04:41:33.364Z,4.85
2023-03-05T04:43:59.880Z,4.89
2023-03-05T04:46:26.484Z,4.98
2023-03-05T04:48:53.856Z,4.97
2023-03-05T04:51:20.426Z,4.92
2023-03-05T04:53:46.949Z,4.83
2023-03-05T04:56:13.512Z,4.84
2023-03-05T04:58:40.083Z,4.79
2023-03-05T05:01:07.572Z,4.86
2023-03-05T05:03:34.523Z,4.84
2023-03-05T05:06:04.440Z,4.78
2023-03-05T05:08:31.261Z,4.72
2023-03-05T05:11:04.423Z,4.72
2023-03-05T05:13:31.979Z,4.70
2023-03-05T05:15:58.928Z,4.71
2023-03-05T05:18:26.070Z,4.70
2023-03-05T05:20:52.788Z,4.69
2023-03-05T05:23:19.438Z,4.62
2023-03-05T05:25:46.057Z,4.55
2023-03-05T05:28:12.902Z,4.62
2023-03-05T05:30:39.462Z,4.62
2023-03-05T05:33:06.019Z,4.59
2023-03-05T05:35:32.616Z,4.65
2023-03-05T05:37:59.205Z,4.69
2023-03-05T05:40:25.733Z,4.64
2023-03-05T05:42:52.320Z,4.62
2023-03-05T05:45:19.073Z,4.59
2023-03-05T05:47:45.655Z,4.58
2023-03-05T05:50:12.673Z,4.59
2023-03-05T05:52:39.208Z,4.58
2023-03-05T05:55:06.491Z,4.58
2023-03-05T05:57:34.507Z,4.65
2023-03-05T06:00:01.500Z,4.66
2023-03-05T06:02:28.166Z,4.62
2023-03-05T06:04:56.652Z,4.72
2023-03-05T06:07:24.367Z,4.69
2023-03-05T06:09:50.969Z,4.60
2023-03-05T06:12:19.902Z,4.68
2023-03-05T06:14:46.425Z,4.70
2023-03-05T06:17:16.941Z,4.69
2023-03-05T06:19:48.510Z,4.69
2023-03-05T06:22:17.647Z,4.76
2023-03-05T06:24:44.203Z,4.77
2023-03-05T06:27:10.730Z,4.80
2023-03-05T06:29:37.217Z,4.83
2023-03-05T06:32:04.599Z,4.81
2023-03-05T06:34:31.124Z,4.77
2023-03-05T06:36:57.701Z,4.81
2023-03-05T06:39:24.222Z,4.78
2023-03-05T06:41:52.220Z,4.79
2023-03-05T06:44:18.729Z,4.83
2023-03-05T06:46:45.317Z,4.83
2023-03-05T06:49:11.995Z,4.86
2023-03-05T06:51:39.931Z,4.83
2023-03-05T06:54:09.630Z,4.85
2023-03-05T06:56:38.644Z,4.88
2023-03-05T06:59:06.224Z,4.87
2023-03-05T07:01:33.239Z,4.87
2023-03-05T07:04:00.764Z,4.84
2023-03-05T07:06:30.477Z,4.80
2023-03-05T07:08:58.516Z,4.84
2023-03-05T07:11:25.752Z,4.88
2023-03-05T07:13:52.426Z,4.93
2023-03-05T07:16:25.146Z,4.94
2023-03-05T07:18:52.396Z,4.90
2023-03-05T07:21:22.285Z,4.93
2023-03-05T07:23:49.371Z,4.94
2023-03-05T07:26:16.699Z,4.92
2023-03-05T07:28:43.350Z,4.93
2023-03-05T07:31:15.685Z,4.95
2023-03-05T07:33:42.337Z,5.00
2023-03-05T07:36:10.461Z,5.03
2023-03-05T07:38:37.012Z,5.07
2023-03-05T07:41:04.815Z,5.08
2023-03-05T07:43:31.419Z,5.10
2023-03-05T07:46:04.894Z,5.19
2023-03-05T07:48:31.524Z,5.22
2023-03-05T07:51:02.480Z,5.21
2023-03-05T07:53:29.077Z,5.25
2023-03-05T07:55:55.658Z,5.28
2023-03-05T07:58:22.297Z,5.37
2023-03-05T08:00:49.343Z,5.37
2023-03-05T08:03:15.961Z,5.39
2023-03-05T08:05:43.005Z,5.38
2023-03-05T08:08:09.879Z,5.45
2023-03-05T08:10:37.055Z,5.57
2023-03-05T08:13:04.149Z,5.49
2023-03-05T08:15:31.790Z,5.49
2023-03-05T08:17:59.428Z,5.48
2023-03-05T08:20:26.083Z,5.44
2023-03-05T08:22:52.668Z,5.56
2023-03-05T08:25:19.402Z,5.54
2023-03-05T08:27:47.170Z,5.62
2023-03-05T08:30:21.757Z,5.63
2023-03-05T08:32:51.848Z,5.61
2023-03-05T08:35:18.460Z,5.58
2023-03-05T08:37:45.001Z,5.58
2023-03-05T08:40:12.099Z,5.70
2023-03-05T08:42:38.665Z,5.70
2023-03-05T08:45:05.676Z,5.68
2023-03-05T08:47:32.159Z,5.71
2023-03-05T08:49:58.756Z,5.56
2023-03-05T08:52:27.349Z,5.62
2023-03-05T08:54:54.148Z,5.63
2023-03-05T08:57:20.836Z,5.54
2023-03-05T08:59:47.536Z,5.64
2023-03-05T09:02:14.294Z,5.62
2023-03-05T09:04:41.255Z,5.59
2023-03-05T09:07:08.017Z,5.65
2023-03-05T09:09:34.895Z,5.55
2023-03-05T09:12:02.280Z,5.54
2023-03-05T09:14:32.333Z,5.62
2023-03-05T09:16:58.878Z,5.72
2023-03-05T09:19:25.743Z,5.71
2023-03-05T09:21:52.277Z,5.70
2023-03-05T09:24:18.792Z,5.72
2023-03-05T09:26:45.402Z,5.78
2023-03-05T09:29:14.298Z,5.72
2023-03-05T09:31:40.919Z,5.61
2023-03-05T09:34:08.327Z,5.53
2023-03-05T09:36:35.530Z,5.56
2023-03-05T09:39:02.307Z,5.39
2023-03-05T09:41:38.751Z,5.46
2023-03-05T09:44:18.057Z,5.51
2023-03-05T09:47:13.302Z,5.38
2023-03-05T09:50:00.119Z,5.30
2023-03-05T09:52:50.504Z,5.37
2023-03-05T09:55:35.091Z,5.34
2023-03-05T09:58:11.561Z,5.26
2023-03-05T10:00:48.159Z,5.25
2023-03-05T10:03:43.826Z,5.27
2023-03-05T10:06:15.344Z,5.22
2023-03-05T10:08:53.846Z,5.25
2023-03-05T10:11:54.594Z,5.25
2023-03-05T10:14:26.623Z,5.26
2023-03-05T10:17:17.166Z,5.29
2023-03-05T10:20:17.711Z,5.44
2023-03-05T10:23:10.681Z,5.31
2023-03-05T10:26:00.091Z,5.39
2023-03-05T10:28:54.713Z,5.37
2023-03-05T10:32:06.584Z,5.26
2023-03-05T10:35:06.826Z,5.35
2023-03-05T10:37:55.943Z,5.29
2023-03-05T10:40:34.783Z,5.34
2023-03-05T10:43:19.991Z,5.42
2023-03-05T10:45:49.783Z,5.45
2023-03-05T10:48:22.429Z,5.43
2023-03-05T10:50:53.624Z,5.34
2023-03-05T10:53:31.087Z,5.40
2023-03-05T10:56:03.857Z,5.32
2023-03-05T10:58:30.695Z,5.29
2023-03-05T11:01:04.905Z,5.18
2023-03-05T11:03:50.940Z,5.13
2023-03-05T11:06:30.585Z,5.14
2023-03-05T11:09:29.242Z,5.14
2023-03-05T11:12:11.653Z,5.16
2023-03-05T11:15:27.804Z,5.19
2023-03-05T11:18:18.689Z,5.07
2023-03-05T11:20:45.985Z,5.03
2023-03-05T11:23:19.923Z,5.02
2023-03-05T11:25:54.214Z,5.03
2023-03-05T11:28:32.846Z,5.07
2023-03-05T11:31:23.605Z,5.11
2023-03-05T11:34:05.236Z,5.10
2023-03-05T11:36:31.739Z,5.08
2023-03-05T11:39:07.783Z,5.14
2023-03-05T11:41:40.367Z,5.19
2023-03-05T11:44:13.777Z,5.31
2023-03-05T11:46:44.837Z,5.44
2023-03-05T11:49:16.820Z,5.56
2023-03-05T11:51:46.120Z,5.75
2023-03-05T11:54:20.430Z,5.81
2023-03-05T11:56:47.284Z,5.82
2023-03-05T11:59:19.143Z,5.86
2023-03-05T12:01:50.300Z,5.88
2023-03-05T12:04:18.246Z,6.01
2023-03-05T12:06:57.948Z,5.93
2023-03-05T12:09:29.098Z,5.95
2023-03-05T12:12:14.176Z,6.11
2023-03-05T12:15:12.456Z,6.02
2023-03-05T12:18:07.415Z,6.07
2023-03-05T12:20:38.895Z,6.02
2023-03-05T12:23:05.567Z,6.03
2023-03-05T12:25:35.516Z,6.04
2023-03-05T12:28:03.083Z,6.02
2023-03-05T12:30:35.565Z,6.07
2023-03-05T12:33:04.598Z,6.10
2023-03-05T12:35:39.606Z,6.00
2023-03-05T12:38:26.875Z,5.98
2023-03-05T12:40:53.842Z,5.88
2023-03-05T12:43:31.854Z,5.98
2023-03-05T12:46:25.073Z,6.01
2023-03-05T12:48:52.556Z,6.08
2023-03-05T12:51:40.925Z,6.12
2023-03-05T12:54:41.980Z,6.12
2023-03-05T12:57:21.859Z,6.06
2023-03-05T12:59:53.591Z,6.11
2023-03-05T13:02:36.043Z,6.07
2023-03-05T13:05:20.920Z,6.01
2023-03-05T13:07:48.713Z,6.03
2023-03-05T13:10:26.897Z,5.93
2023-03-05T13:12:56.746Z,5.88
2023-03-05T13:15:25.654Z,5.92
2023-03-05T13:17:56.754Z,5.98
2023-03-05T13:20:31.318Z,5.98
2023-03-05T13:23:18.759Z,6.04
2023-03-05T13:25:55.760Z,5.92
2023-03-05T13:28:22.284Z,5.90
2023-03-05T13:31:04.008Z,5.84
2023-03-05T13:33:33.927Z,5.75
2023-03-05T13:36:02.592Z,5.80
2023-03-05T13:38:43.629Z,5.77
2023-03-05T13:41:16.271Z,5.70
2023-03-05T13:43:46.029Z,5.72
2023-03-05T13:46:14.134Z,5.68
2023-03-05T13:48:40.785Z,5.68
2023-03-05T13:51:09.623Z,5.62
2023-03-05T13:53:36.952Z,5.54
2023-03-05T13:56:07.602Z,5.54
2023-03-05T13:58:49.561Z,5.53
2023-03-05T14:01:17.132Z,5.50
2023-03-05T14:03:46.358Z,5.60
2023-03-05T14:06:19.451Z,5.61
2023-03-05T14:08:51.247Z,5.63
2023-03-05T14:11:19.533Z,5.65
2023-03-05T14:13:48.901Z,5.63
2023-03-05T14:16:42.245Z,5.68
2023-03-05T14:19:32.879Z,5.66
2023-03-05T14:21:59.593Z,5.68
2023-03-05T14:24:31.293Z,5.74
2023-03-05T14:27:07.895Z,5.67
2023-03-05T14:29:34.947Z,5.62
2023-03-05T14:32:30.837Z,5.59
2023-03-05T14:34:59.751Z,5.56
2023-03-05T14:37:35.567Z,5.53
2023-03-05T14:40:08.276Z,5.54
2023-03-05T14:42:51.343Z,5.52
2023-03-05T14:45:23.530Z,5.55
2023-03-05T14:47:51.939Z,5.61
2023-03-05T14:50:33.876Z,5.63
2023-03-05T14:53:04.266Z,5.65
2023-03-05T14:55:32.375Z,5.69
2023-03-05T14:58:22.897Z,5.69
2023-03-05T15:00:51.244Z,5.66
2023-03-05T15:03:19.254Z,5.67
2023-03-05T15:05:48.942Z,5.71
2023-03-05T15:08:22.577Z,5.66
2023-03-05T15:10:49.888Z,5.79
2023-03-05T15:13:17.015Z,5.80
2023-03-05T15:15:45.135Z,5.80
2023-03-05T15:18:19.447Z,5.75
2023-03-05T15:20:48.768Z,5.86
2023-03-05T15:23:17.174Z,5.89
2023-03-05T15:25:43.704Z,5.82
2023-03-05T15:28:10.308Z,5.77
2023-03-05T15:30:43.663Z,5.76
2023-03-05T15:33:13.574Z,5.69
2023-03-05T15:35:40.794Z,5.55
2023-03-05T15:38:08.012Z,5.62
2023-03-05T15:40:34.658Z,5.64
2023-03-05T15:43:01.677Z,5.61
2023-03-05T15:45:31.331Z,5.64
2023-03-05T15:47:58.451Z,5.63
2023-03-05T15:50:25.056Z,5.69
2023-03-05T15:52:52.013Z,5.68
2023-03-05T15:55:19.124Z,5.62
2023-03-05T15:57:48.867Z,5.47
2023-03-05T16:00:18.226Z,5.46
2023-03-05T16:02:44.838Z,5.45
2023-03-05T16:05:11.548Z,5.41
2023-03-05T16:07:42.301Z,5.42
2023-03-05T16:10:13.723Z,5.47
2023-03-05T16:12:43.029Z,5.45
2023-03-05T16:15:16.474Z,5.41
2023-03-05T16:17:45.572Z,5.35
2023-03-05T16:20:13.244Z,5.33
2023-03-05T16:22:40.145Z,5.29
2023-03-05T16:25:07.437Z,5.27
2023-03-05T16:27:34.427Z,5.27
2023-03-05T16:30:00.987Z,5.29
2023-03-05T16:32:27.684Z,5.25
2023-03-05T16:34:54.308Z,5.20
2023-03-05T16:37:23.606Z,5.22
2023-03-05T16:39:50.237Z,5.17
2023-03-05T16:42:17.951Z,5.15
2023-03-05T16:44:45.324Z,5.15
2023-03-05T16:47:12.325Z,5.11
2023-03-05T16:49:39.889Z,5.13
2023-03-05T16:52:18.239Z,5.12
2023-03-05T16:54:46.933Z,5.15
2023-03-05T16:57:13.855Z,5.22
2023-03-05T16:59:40.550Z,5.13
2023-03-05T17:02:10.084Z,5.17
2023-03-05T17:04:37.240Z,5.22
2023-03-05T17:07:05.530Z,5.23
2023-03-05T17:09:32.133Z,5.19
2023-03-05T17:11:58.883Z,5.21
2023-03-05T17:14:25.561Z,5.14
2023-03-05T17:16:52.087Z,5.13
2023-03-05T17:19:18.886Z,5.09
2023-03-05T17:21:45.708Z,5.20
2023-03-05T17:24:12.168Z,5.12
2023-03-05T17:26:38.882Z,5.09
2023-03-05T17:29:05.799Z,5.05
2023-03-05T17:31:32.947Z,5.06
2023-03-05T17:33:59.718Z,5.04
2023-03-05T17:36:26.408Z,5.00
2023-03-05T17:38:54.877Z,4.96
2023-03-05T17:41:22.181Z,5.06
2023-03-05T17:43:49.352Z,5.04
2023-03-05T17:46:16.884Z,5.14
2023-03-05T17:48:43.597Z,5.06
2023-03-05T17:51:12.692Z,5.03
2023-03-05T17:53:40.405Z,5.05
2023-03-05T17:56:09.633Z,5.03
2023-03-05T17:58:37.022Z,5.04
2023-03-05T18:01:04.238Z,5.00
2023-03-05T18:03:30.868Z,4.97
2023-03-05T18:05:57.478Z,5.02
2023-03-05T18:08:24.110Z,4.99
2023-03-05T18:10:50.781Z,4.94
2023-03-05T18:13:17.500Z,5.00
2023-03-05T18:15:47.801Z,4.97
2023-03-05T18:18:16.011Z,5.02
2023-03-05T18:20:42.660Z,5.04
2023-03-05T18:23:09.953Z,5.02
2023-03-05T18:25:36.604Z,4.96
2023-03-05T18:28:09.004Z,4.90
2023-03-05T18:30:36.756Z,4.94
2023-03-05T18:33:04.197Z,4.88
2023-03-05T18:35:32.314Z,4.94
2023-03-05T18:37:59.539Z,4.89
2023-03-05T18:40:29.720Z,4.82
2023-03-05T18:42:58.852Z,4.75
2023-03-05T18:45:25.494Z,4.71
2023-03-05T18:47:54.187Z,4.61
2023-03-05T18:50:23.479Z,4.55
2023-03-05T18:52:50.321Z,4.57
2023-03-05T18:55:23.574Z,4.57
2023-03-05T18:57:50.820Z,4.55
2023-03-05T19:00:20.010Z,4.49
2023-03-05T19:02:47.316Z,4.49
2023-03-05T19:05:15.274Z,4.44
2023-03-05T19:07:41.952Z,4.46
2023-03-05T19:10:10.654Z,4.42
2023-03-05T19:13:19.359Z,4.36
2023-03-05T19:15:46.002Z,4.39
2023-03-05T19:18:13.215Z,4.40
2023-03-05T19:20:39.896Z,4.35
2023-03-05T19:23:06.477Z,4.35
2023-03-05T19:25:34.037Z,4.34
2023-03-05T19:28:01.536Z,4.36
2023-03-05T19:30:28.054Z,4.35
2023-03-05T19:32:54.586Z,4.31
2023-03-05T19:35:21.251Z,4.35
2023-03-05T19:37:47.864Z,4.34
2023-03-05T19:40:14.920Z,4.34
2023-03-05T19:42:41.550Z,4.37
2023-03-05T19:45:08.855Z,4.37
2023-03-05T19:47:35.656Z,4.38
2023-03-05T19:50:02.723Z,4.40
2023-03-05T19:52:29.287Z,4.42
2023-03-05T19:54:55.886Z,4.40
2023-03-05T19:57:22.486Z,4.37
2023-03-05T19:59:54.262Z,4.47
2023-03-05T20:02:21.882Z,4.47
2023-03-05T20:04:49.541Z,4.47
2023-03-05T20:07:16.827Z,4.46
2023-03-05T20:09:43.429Z,4.47
2023-03-05T20:12:10.440Z,4.43
2023-03-05T20:14:37.173Z,4.51
2023-03-05T20:17:03.882Z,4.53
2023-03-05T20:19:30.529Z,4.50
2023-03-05T20:21:57.092Z,4.48
2023-03-05T20:24:23.612Z,4.43
2023-03-05T20:26:50.167Z,4.46
2023-03-05T20:29:18.155Z,4.45
2023-03-05T20:31:45.197Z,4.45
2023-03-05T20:34:14.796Z,4.42
2023-03-05T20:36:41.475Z,4.47
2023-03-05T20:39:10.079Z,4.52
2023-03-05T20:41:38.610Z,4.58
2023-03-05T20:44:05.979Z,4.60
2023-03-05T20:46:35.526Z,4.56
2023-03-05T20:49:04.001Z,4.59
2023-03-05T20:51:36.398Z,4.51
2023-03-05T20:54:10.085Z,4.45
2023-03-05T20:56:37.542Z,4.42
2023-03-05T20:59:07.509Z,4.46
2023-03-05T21:01:35.876Z,4.59
2023-03-05T21:04:03.189Z,4.50
2023-03-05T21:06:31.765Z,4.49
2023-03-05T21:08:59.332Z,4.43
2023-03-05T21:11:26.383Z,4.42
2023-03-05T21:13:53.313Z,4.40
2023-03-05T21:16:23.364Z,4.40
2023-03-05T21:18:51.384Z,4.36
2023-03-05T21:21:18.697Z,4.35
2023-03-05T21:23:45.725Z,4.33
2023-03-05T21:26:13.496Z,4.31
2023-03-05T21:28:40.717Z,4.30
2023-03-05T21:31:10.700Z,4.31
2023-03-05T21:33:37.598Z,4.27
2023-03-05T21:36:04.597Z,4.26
2023-03-05T21:38:34.065Z,4.24
2023-03-05T21:41:02.465Z,4.26
2023-03-05T21:43:31.353Z,4.27
2023-03-05T21:46:01.051Z,4.19
2023-03-05T21:48:27.797Z,4.18
2023-03-05T21:50:55.494Z,4.17
2023-03-05T21:53:22.196Z,4.19
2023-03-05T21:56:31.014Z,4.19
2023-03-05T21:58:59.982Z,4.15
2023-03-05T22:01:26.593Z,4.19
2023-03-05T22:03:53.959Z,4.24
2023-03-05T22:06:21.976Z,4.29
2023-03-05T22:08:48.683Z,4.29
2023-03-05T22:11:17.297Z,4.29
2023-03-05T22:13:44.294Z,4.27
2023-03-05T22:16:11.363Z,4.29
2023-03-05T22:18:40.446Z,4.30
2023-03-05T22:21:17.094Z,4.30
2023-03-05T22:23:43.650Z,4.35
2023-03-05T22:26:10.207Z,4.38
2023-03-05T22:28:38.907Z,4.43
2023-03-05T22:31:06.069Z,4.43
2023-03-05T22:33:32.792Z,4.38
2023-03-05T22:35:59.507Z,4.38
2023-03-05T22:38:28.357Z,4.36
2023-03-05T22:40:54.902Z,4.38
2023-03-05T22:43:21.795Z,4.38
2023-03-05T22:45:49.145Z,4.38
2023-03-05T22:48:16.193Z,4.38
2023-03-05T22:50:44.278Z,4.44
2023-03-05T22:53:12.113Z,4.45
2023-03-05T22:55:40.990Z,4.41
2023-03-05T22:58:07.699Z,4.36
2023-03-05T23:00:34.364Z,4.36
2023-03-05T23:03:01.148Z,4.33
2023-03-05T23:05:35.357Z,4.33
2023-03-05T23:08:01.874Z,4.29
2023-03-05T23:10:29.348Z,4.23
2023-03-05T23:12:57.787Z,4.25
2023-03-05T23:15:33.428Z,4.27
2023-03-05T23:18:00.335Z,4.31
2023-03-05T23:20:33.197Z,4.30
2023-03-05T23:23:00.176Z,4.35
2023-03-05T23:25:29.470Z,4.36
2023-03-05T23:27:58.129Z,4.38
2023-03-05T23:30:33.747Z,4.41
2023-03-05T23:33:09.469Z,4.47
2023-03-05T23:35:38.611Z,4.45
2023-03-05T23:38:11.768Z,4.36
2023-03-05T23:40:51.802Z,4.35
2023-03-05T23:43:19.034Z,4.35
2023-03-05T23:45:48.201Z,4.34
2023-03-05T23:48:16.491Z,4.35
2023-03-05T23:50:47.579Z,4.33
2023-03-05T23:53:29.287Z,4.31
2023-03-05T23:55:57.400Z,4.30
2023-03-05T23:58:24.290Z,4.31
